Fascination — C6FM9 — position and weather

sailwx.info

Track history (hours):
 
Tides and Currents Weather Stations Pressure Air Temp Water Temp Dewpoint Dewpoint Depression Visibility Wind Speed Wind Dir Waves Ship Positions

Fascination

Operator: Carnival Cruise Lines

Last reported at 2019-Jun-15 11:06 UTC. Time now 2019-Jun-15 23:25 UTC.
Position N 14°48' W 061°44'.

Type: Ship. MMSI: 309682000.

Date/timePositionNaut miles runAvg speedWind from/ knotsBaromVisibWave heightAir tempDewpointWater temp
2019-Jun-15 11:06N 14°48' W 061°44'1951839.4
2019-Jun-15 11:00N 17°18' W 063°54'210275.9 070 / 271015.0 1.1 26.024.6
2019-Jun-15 10:14N 14°37' W 061°34'517.1
2019-Jun-15 09:54N 14°32' W 061°30'1617.5
2019-Jun-15 09:01N 14°20' W 061°20'117.2
2019-Jun-15 08:57N 14°19' W 061°20'716.6
2019-Jun-15 08:30N 14°14' W 061°14'816.6
2019-Jun-15 08:00N 14°13' W 061°06'816.6
2019-Jun-15 07:30N 14°13' W 060°57'816.7
2019-Jun-15 07:00N 14°13' W 060°48'916.4
2019-Jun-15 06:27N 14°12' W 060°39'90 4.4
2019-Jun-14 10:00N 13°06' W 059°36'8212.2 100 / 171015.0 1.1 26.024.6
2019-Jun-14 03:18N 13°30' W 060°56'1111.1
2019-Jun-14 02:19N 13°33' W 061°07'28 6.2
2019-Jun-13 21:48N 14°01' W 061°04'4 8.8
2019-Jun-13 21:23N 14°01' W 061°01'1 2.1
2019-Jun-13 20:51N 14°01' W 060°60'0 0.0
2019-Jun-13 18:23N 14°01' W 060°60'0 0.0
2019-Jun-13 16:31N 14°01' W 060°60'0 0.0
2019-Jun-13 13:27N 14°01' W 060°60'0 0.0
2019-Jun-13 12:03N 14°01' W 060°60'0 0.0
2019-Jun-13 12:00N 14°01' W 060°60'0 0.3
2019-Jun-13 11:29N 14°01' W 060°60'2 3.7
2019-Jun-13 10:57N 14°02' W 061°01'510.7
2019-Jun-13 10:31N 14°05' W 061°05'816.1
2019-Jun-13 10:00N 14°10' W 061°11'15936.8
2019-Jun-13 10:00N 14°00' W 061°00'2348.3 100 / 231016.0 1.1 26.024.6
2019-Jun-13 09:30N 14°17' W 061°17'1216.3
2019-Jun-13 08:47N 14°27' W 061°23'416.2
2019-Jun-13 08:30N 14°31' W 061°26'816.1
2019-Jun-13 08:00N 14°37' W 061°30'1316.2
2019-Jun-13 07:12N 14°50' W 061°35'159 7.5
2019-Jun-12 10:00N 17°12' W 062°48'66 9.5 100 / 121016.0 1.1 26.024.6
2019-Jun-12 03:00N 17°54' W 063°42'29 1.7 070 / 181017.010.8 27.024.125.0
2019-Jun-11 10:00N 18°00' W 063°12'49 7.0 080 / 181017.0 1.1 27.025.6
2019-Jun-11 03:00N 18°18' W 064°00'3211.4 110 / 181019.010.8 27.024.125.0
2019-Jun-11 00:09N 18°09' W 064°33'410.7
2019-Jun-10 23:48N 18°09' W 064°37'310.6
2019-Jun-10 23:29N 18°10' W 064°40'510.5
2019-Jun-10 23:00N 18°10' W 064°45'510.5
2019-Jun-10 22:30N 18°12' W 064°51'5 9.8
2019-Jun-10 22:00N 18°15' W 064°55'510.0
2019-Jun-10 21:30N 18°20' W 064°56'1 0.8
2019-Jun-10 20:48N 18°20' W 064°55'0 0.0
2019-Jun-10 20:30N 18°20' W 064°55'0 0.0
2019-Jun-10 20:00N 18°20' W 064°55'0 0.0
2019-Jun-10 19:30N 18°20' W 064°55'0 0.0
2019-Jun-10 18:54N 18°20' W 064°55'0 0.0
2019-Jun-10 18:29N 18°20' W 064°55'0 0.0
2019-Jun-10 17:53N 18°20' W 064°55'0 0.0
2019-Jun-10 17:29N 18°20' W 064°55'0 0.0
2019-Jun-10 16:47N 18°20' W 064°55'0 0.0
2019-Jun-10 16:29N 18°20' W 064°55'0 0.0
2019-Jun-10 15:52N 18°20' W 064°55'0 0.0
2019-Jun-10 15:28N 18°20' W 064°55'0 0.0
2019-Jun-10 14:40N 18°20' W 064°55'0 0.0
2019-Jun-10 14:28N 18°20' W 064°55'0 0.0
2019-Jun-10 13:58N 18°20' W 064°55'0 0.0
2019-Jun-10 13:21N 18°20' W 064°55'0 0.0
2019-Jun-10 12:57N 18°20' W 064°55'0 0.0
2019-Jun-10 12:27N 18°20' W 064°55'0 0.0
2019-Jun-10 12:00N 18°20' W 064°55'0 0.0
2019-Jun-10 11:30N 18°20' W 064°55'0 0.0
2019-Jun-10 11:00N 18°20' W 064°55'0 1.0
2019-Jun-10 10:30N 18°20' W 064°56'4 6.9
2019-Jun-10 10:00N 18°16' W 064°57'510.0
2019-Jun-10 09:30N 18°17' W 065°02'510.2
2019-Jun-10 09:00N 18°19' W 065°07'4 9.0
2019-Jun-10 08:30N 18°22' W 065°10'510.0
2019-Jun-10 08:00N 18°27' W 065°11'5 9.9
2019-Jun-10 07:30N 18°32' W 065°12'5 9.9
2019-Jun-10 07:00N 18°37' W 065°12'5 9.8
2019-Jun-10 06:30N 18°42' W 065°13'5 9.8
2019-Jun-10 06:00N 18°46' W 065°14'5 9.8
2019-Jun-10 05:30N 18°51' W 065°15'5 9.9
2019-Jun-10 05:00N 18°56' W 065°17'5 9.7
2019-Jun-10 04:30N 18°58' W 065°21'510.5
2019-Jun-10 04:00N 18°58' W 065°27'510.8
2019-Jun-10 03:30N 18°58' W 065°33'510.7
2019-Jun-10 03:00N 18°58' W 065°38'511.0
2019-Jun-10 02:30N 18°58' W 065°44'510.9
2019-Jun-10 02:00N 18°58' W 065°50'610.0
2019-Jun-10 01:25N 18°56' W 065°56'511.1
2019-Jun-10 01:00N 18°52' W 065°58'811.1
2019-Jun-10 00:15N 18°45' W 066°02'310.8
2019-Jun-09 23:58N 18°42' W 066°04'510.6
2019-Jun-09 23:30N 18°38' W 066°06'510.7
2019-Jun-09 23:00N 18°33' W 066°08'510.2
2019-Jun-09 22:30N 18°28' W 066°07'1 1.0
2019-Jun-09 21:54N 18°28' W 066°07'0 0.0
2019-Jun-09 21:30N 18°28' W 066°07'0 0.0
2019-Jun-09 20:54N 18°28' W 066°07'0 0.0
2019-Jun-09 20:30N 18°28' W 066°07'0 0.0
2019-Jun-09 20:00N 18°28' W 066°07'0 0.0
2019-Jun-09 19:23N 18°28' W 066°07'0 0.0
2019-Jun-09 18:41N 18°28' W 066°07'0 0.0
2019-Jun-09 16:22N 18°28' W 066°07'0 0.0
2019-Jun-09 15:34N 18°28' W 066°07'0 0.0
2019-Jun-09 15:22N 18°28' W 066°07'0 0.0
2019-Jun-09 14:51N 18°28' W 066°07'0 0.0
2019-Jun-09 13:57N 18°28' W 066°07'0 0.0
2019-Jun-09 13:15N 18°28' W 066°07'0 0.0
2019-Jun-09 12:57N 18°28' W 066°07'0 0.0
2019-Jun-09 11:44N 18°28' W 066°07'0 0.0
2019-Jun-09 10:40N 18°28' W 066°07'0 0.5
2019-Jun-09 10:30N 18°28' W 066°07'2 4.8
2019-Jun-09 10:00N 18°30' W 066°08'511.0
2019-Jun-09 09:30N 18°35' W 066°06'611.2
2019-Jun-09 09:00N 18°40' W 066°04'10821.2
2019-Jun-09 09:00N 18°30' W 066°06'1631.9 120 / 221016.0 1.1 26.024.6
2019-Jun-09 08:30N 18°44' W 065°59'714.0
2019-Jun-09 08:01N 18°43' W 065°52'714.5
2019-Jun-09 07:31N 18°42' W 065°44'714.6
2019-Jun-09 07:01N 18°41' W 065°37'714.4
2019-Jun-09 06:31N 18°40' W 065°29'714.8
2019-Jun-09 06:01N 18°37' W 065°22'815.7
2019-Jun-09 05:31N 18°31' W 065°16'815.6
2019-Jun-09 05:01N 18°25' W 065°11'1414.4
2019-Jun-09 04:01N 18°12' W 065°05'816.8
2019-Jun-09 03:31N 18°10' W 064°57'816.8
2019-Jun-09 03:01N 18°08' W 064°48'816.9
2019-Jun-09 02:30N 18°06' W 064°40'6514.3
2019-Jun-08 22:00N 17°18' W 063°54'0 0.0 100 / 211015.0 2.2 26.024.6
2019-Jun-08 11:00N 17°18' W 063°54'212213.1 110 / 181015.0 2.2 26.024.6
2019-Jun-08 10:00N 14°35' W 061°33'3116.3
2019-Jun-08 08:04N 14°14' W 061°09'116.5
2019-Jun-08 08:00N 14°14' W 061°08'1516.8
2019-Jun-08 07:06N 14°13' W 060°52'216.5
2019-Jun-08 07:00N 14°13' W 060°50'98 4.5
2019-Jun-07 09:00N 13°06' W 059°36'8214.8 100 / 171013.0 1.1 26.024.6
2019-Jun-07 03:28N 13°30' W 060°56'33 5.5
2019-Jun-06 21:27N 14°02' W 061°03'4 0.7
2019-Jun-06 16:10N 14°01' W 060°60'0 0.0
2019-Jun-06 11:53N 14°01' W 060°60'0 0.2
2019-Jun-06 11:25N 14°01' W 060°60'2 5.0
2019-Jun-06 10:58N 14°02' W 061°02'814.0
2019-Jun-06 10:23N 14°07' W 061°08'616.7
2019-Jun-06 10:00N 14°12' W 061°13'6356.7
2019-Jun-06 10:00N 14°06' W 061°12'1426.4 110 / 181013.0 1.1 26.024.6
2019-Jun-06 09:27N 14°19' W 061°19'1316.4
2019-Jun-06 08:39N 14°30' W 061°25'316.6
2019-Jun-06 08:27N 14°34' W 061°26'917.1
2019-Jun-06 07:56N 14°42' W 061°30'917.5
2019-Jun-06 07:24N 14°50' W 061°34'  
Track history (hours):
 
Tides and Currents Weather Stations Pressure Air Temp Water Temp Dewpoint Dewpoint Depression Visibility Wind Speed Wind Dir Waves Ship Positions

Fascination

Operator: Carnival Cruise Lines

Last reported at 2019-Jun-15 11:06 UTC. Time now 2019-Jun-15 23:25 UTC.
Position N 14°48' W 061°44'.

Type: Ship. MMSI: 309682000.

Date/timePositionNaut miles runAvg speedWind from/ knotsBaromVisibWave heightAir tempDewpointWater temp
2019-Jun-15 11:06N 14°48' W 061°44'1951839.4
2019-Jun-15 11:00N 17°18' W 063°54'210275.9 070 / 271015.0 1.1 26.024.6
2019-Jun-15 10:14N 14°37' W 061°34'517.1
2019-Jun-15 09:54N 14°32' W 061°30'1617.5
2019-Jun-15 09:01N 14°20' W 061°20'117.2
2019-Jun-15 08:57N 14°19' W 061°20'716.6
2019-Jun-15 08:30N 14°14' W 061°14'816.6
2019-Jun-15 08:00N 14°13' W 061°06'816.6
2019-Jun-15 07:30N 14°13' W 060°57'816.7
2019-Jun-15 07:00N 14°13' W 060°48'916.4
2019-Jun-15 06:27N 14°12' W 060°39'90 4.4
2019-Jun-14 10:00N 13°06' W 059°36'8212.2 100 / 171015.0 1.1 26.024.6
2019-Jun-14 03:18N 13°30' W 060°56'1111.1
2019-Jun-14 02:19N 13°33' W 061°07'28 6.2
2019-Jun-13 21:48N 14°01' W 061°04'4 8.8
2019-Jun-13 21:23N 14°01' W 061°01'1 2.1
2019-Jun-13 20:51N 14°01' W 060°60'0 0.0
2019-Jun-13 18:23N 14°01' W 060°60'0 0.0
2019-Jun-13 16:31N 14°01' W 060°60'0 0.0
2019-Jun-13 13:27N 14°01' W 060°60'0 0.0
2019-Jun-13 12:03N 14°01' W 060°60'0 0.0
2019-Jun-13 12:00N 14°01' W 060°60'0 0.3
2019-Jun-13 11:29N 14°01' W 060°60'2 3.7
2019-Jun-13 10:57N 14°02' W 061°01'510.7
2019-Jun-13 10:31N 14°05' W 061°05'816.1
2019-Jun-13 10:00N 14°10' W 061°11'15936.8
2019-Jun-13 10:00N 14°00' W 061°00'2348.3 100 / 231016.0 1.1 26.024.6
2019-Jun-13 09:30N 14°17' W 061°17'1216.3
2019-Jun-13 08:47N 14°27' W 061°23'416.2
2019-Jun-13 08:30N 14°31' W 061°26'816.1
2019-Jun-13 08:00N 14°37' W 061°30'1316.2
2019-Jun-13 07:12N 14°50' W 061°35'159 7.5
2019-Jun-12 10:00N 17°12' W 062°48'66 9.5 100 / 121016.0 1.1 26.024.6
2019-Jun-12 03:00N 17°54' W 063°42'29 1.7 070 / 181017.010.8 27.024.125.0
2019-Jun-11 10:00N 18°00' W 063°12'49 7.0 080 / 181017.0 1.1 27.025.6
2019-Jun-11 03:00N 18°18' W 064°00'3211.4 110 / 181019.010.8 27.024.125.0
2019-Jun-11 00:09N 18°09' W 064°33'410.7
2019-Jun-10 23:48N 18°09' W 064°37'310.6
2019-Jun-10 23:29N 18°10' W 064°40'510.5
2019-Jun-10 23:00N 18°10' W 064°45'510.5
2019-Jun-10 22:30N 18°12' W 064°51'5 9.8
2019-Jun-10 22:00N 18°15' W 064°55'510.0
2019-Jun-10 21:30N 18°20' W 064°56'1 0.8
2019-Jun-10 20:48N 18°20' W 064°55'0 0.0
2019-Jun-10 20:30N 18°20' W 064°55'0 0.0
2019-Jun-10 20:00N 18°20' W 064°55'0 0.0
2019-Jun-10 19:30N 18°20' W 064°55'0 0.0
2019-Jun-10 18:54N 18°20' W 064°55'0 0.0
2019-Jun-10 18:29N 18°20' W 064°55'0 0.0
2019-Jun-10 17:53N 18°20' W 064°55'0 0.0
2019-Jun-10 17:29N 18°20' W 064°55'0 0.0
2019-Jun-10 16:47N 18°20' W 064°55'0 0.0
2019-Jun-10 16:29N 18°20' W 064°55'0 0.0
2019-Jun-10 15:52N 18°20' W 064°55'0 0.0
2019-Jun-10 15:28N 18°20' W 064°55'0 0.0
2019-Jun-10 14:40N 18°20' W 064°55'0 0.0
2019-Jun-10 14:28N 18°20' W 064°55'0 0.0
2019-Jun-10 13:58N 18°20' W 064°55'0 0.0
2019-Jun-10 13:21N 18°20' W 064°55'0 0.0
2019-Jun-10 12:57N 18°20' W 064°55'0 0.0
2019-Jun-10 12:27N 18°20' W 064°55'0 0.0
2019-Jun-10 12:00N 18°20' W 064°55'0 0.0
2019-Jun-10 11:30N 18°20' W 064°55'0 0.0
2019-Jun-10 11:00N 18°20' W 064°55'0 1.0
2019-Jun-10 10:30N 18°20' W 064°56'4 6.9
2019-Jun-10 10:00N 18°16' W 064°57'510.0
2019-Jun-10 09:30N 18°17' W 065°02'510.2
2019-Jun-10 09:00N 18°19' W 065°07'4 9.0
2019-Jun-10 08:30N 18°22' W 065°10'510.0
2019-Jun-10 08:00N 18°27' W 065°11'5 9.9
2019-Jun-10 07:30N 18°32' W 065°12'5 9.9
2019-Jun-10 07:00N 18°37' W 065°12'5 9.8
2019-Jun-10 06:30N 18°42' W 065°13'5 9.8
2019-Jun-10 06:00N 18°46' W 065°14'5 9.8
2019-Jun-10 05:30N 18°51' W 065°15'5 9.9
2019-Jun-10 05:00N 18°56' W 065°17'5 9.7
2019-Jun-10 04:30N 18°58' W 065°21'510.5
2019-Jun-10 04:00N 18°58' W 065°27'510.8
2019-Jun-10 03:30N 18°58' W 065°33'510.7
2019-Jun-10 03:00N 18°58' W 065°38'511.0
2019-Jun-10 02:30N 18°58' W 065°44'510.9
2019-Jun-10 02:00N 18°58' W 065°50'610.0
2019-Jun-10 01:25N 18°56' W 065°56'511.1
2019-Jun-10 01:00N 18°52' W 065°58'811.1
2019-Jun-10 00:15N 18°45' W 066°02'310.8
2019-Jun-09 23:58N 18°42' W 066°04'510.6
2019-Jun-09 23:30N 18°38' W 066°06'510.7
2019-Jun-09 23:00N 18°33' W 066°08'510.2
2019-Jun-09 22:30N 18°28' W 066°07'1 1.0
2019-Jun-09 21:54N 18°28' W 066°07'0 0.0
2019-Jun-09 21:30N 18°28' W 066°07'0 0.0
2019-Jun-09 20:54N 18°28' W 066°07'0 0.0
2019-Jun-09 20:30N 18°28' W 066°07'0 0.0
2019-Jun-09 20:00N 18°28' W 066°07'0 0.0
2019-Jun-09 19:23N 18°28' W 066°07'0 0.0
2019-Jun-09 18:41N 18°28' W 066°07'0 0.0
2019-Jun-09 16:22N 18°28' W 066°07'0 0.0
2019-Jun-09 15:34N 18°28' W 066°07'0 0.0
2019-Jun-09 15:22N 18°28' W 066°07'0 0.0
2019-Jun-09 14:51N 18°28' W 066°07'0 0.0
2019-Jun-09 13:57N 18°28' W 066°07'0 0.0
2019-Jun-09 13:15N 18°28' W 066°07'0 0.0
2019-Jun-09 12:57N 18°28' W 066°07'0 0.0
2019-Jun-09 11:44N 18°28' W 066°07'0 0.0
2019-Jun-09 10:40N 18°28' W 066°07'0 0.5
2019-Jun-09 10:30N 18°28' W 066°07'2 4.8
2019-Jun-09 10:00N 18°30' W 066°08'511.0
2019-Jun-09 09:30N 18°35' W 066°06'611.2
2019-Jun-09 09:00N 18°40' W 066°04'10821.2
2019-Jun-09 09:00N 18°30' W 066°06'1631.9 120 / 221016.0 1.1 26.024.6
2019-Jun-09 08:30N 18°44' W 065°59'714.0
2019-Jun-09 08:01N 18°43' W 065°52'714.5
2019-Jun-09 07:31N 18°42' W 065°44'714.6
2019-Jun-09 07:01N 18°41' W 065°37'714.4
2019-Jun-09 06:31N 18°40' W 065°29'714.8
2019-Jun-09 06:01N 18°37' W 065°22'815.7
2019-Jun-09 05:31N 18°31' W 065°16'815.6
2019-Jun-09 05:01N 18°25' W 065°11'1414.4
2019-Jun-09 04:01N 18°12' W 065°05'816.8
2019-Jun-09 03:31N 18°10' W 064°57'816.8
2019-Jun-09 03:01N 18°08' W 064°48'816.9
2019-Jun-09 02:30N 18°06' W 064°40'6514.3
2019-Jun-08 22:00N 17°18' W 063°54'0 0.0 100 / 211015.0 2.2 26.024.6
2019-Jun-08 11:00N 17°18' W 063°54'212213.1 110 / 181015.0 2.2 26.024.6
2019-Jun-08 10:00N 14°35' W 061°33'3116.3
2019-Jun-08 08:04N 14°14' W 061°09'116.5
2019-Jun-08 08:00N 14°14' W 061°08'1516.8
2019-Jun-08 07:06N 14°13' W 060°52'216.5
2019-Jun-08 07:00N 14°13' W 060°50'98 4.5
2019-Jun-07 09:00N 13°06' W 059°36'8214.8 100 / 171013.0 1.1 26.024.6
2019-Jun-07 03:28N 13°30' W 060°56'33 5.5
2019-Jun-06 21:27N 14°02' W 061°03'4 0.7
2019-Jun-06 16:10N 14°01' W 060°60'0 0.0
2019-Jun-06 11:53N 14°01' W 060°60'0 0.2
2019-Jun-06 11:25N 14°01' W 060°60'2 5.0
2019-Jun-06 10:58N 14°02' W 061°02'814.0
2019-Jun-06 10:23N 14°07' W 061°08'616.7
2019-Jun-06 10:00N 14°12' W 061°13'6356.7
2019-Jun-06 10:00N 14°06' W 061°12'1426.4 110 / 181013.0 1.1 26.024.6
2019-Jun-06 09:27N 14°19' W 061°19'1316.4
2019-Jun-06 08:39N 14°30' W 061°25'316.6
2019-Jun-06 08:27N 14°34' W 061°26'917.1
2019-Jun-06 07:56N 14°42' W 061°30'917.5
2019-Jun-06 07:24N 14°50' W 061°34'  

Dump ship's entire track history